sensor_id;sensor_type;location;lat;lon;timestamp;temperature;humidity
35633;DHT22;21754;48.216;-1.628;2023-02-01T11:45:26;13.20;99.90
35633;DHT22;21754;48.216;-1.628;2023-02-01T11:47:53;13.50;99.90
35633;DHT22;21754;48.216;-1.628;2023-02-01T12:27:11;13.70;99.90
35633;DHT22;21754;48.216;-1.628;2023-02-01T13:19:00;13.90;99.90
35633;DHT22;21754;48.216;-1.628;2023-02-01T13:21:30;13.90;99.90
35633;DHT22;21754;48.216;-1.628;2023-02-01T13:23:57;13.90;99.90
35633;DHT22;21754;48.216;-1.628;2023-02-01T13:26:23;14.00;99.90
35633;DHT22;21754;48.216;-1.628;2023-02-01T13:28:58;14.10;99.90
35633;DHT22;21754;48.216;-1.628;2023-02-01T13:34:41;13.90;99.90
35633;DHT22;21754;48.216;-1.628;2023-02-01T13:42:27;13.50;99.90
35633;DHT22;21754;48.216;-1.628;2023-02-01T13:45:03;13.60;99.90
35633;DHT22;21754;48.216;-1.628;2023-02-01T13:47:33;13.60;99.90
35633;DHT22;21754;48.216;-1.628;2023-02-01T13:50:24;13.50;99.90
35633;DHT22;21754;48.216;-1.628;2023-02-01T13:52:55;13.50;99.90
35633;DHT22;21754;48.216;-1.628;2023-02-01T13:57:48;13.30;99.90
35633;DHT22;21754;48.216;-1.628;2023-02-01T14:10:55;13.50;99.90
35633;DHT22;21754;48.216;-1.628;2023-02-01T14:21:22;13.30;99.90
35633;DHT22;21754;48.216;-1.628;2023-02-01T14:24:02;13.40;99.90
35633;DHT22;21754;48.216;-1.628;2023-02-01T14:42:32;14.10;99.90
35633;DHT22;21754;48.216;-1.628;2023-02-01T14:55:40;14.10;99.90
35633;DHT22;21754;48.216;-1.628;2023-02-01T15:00:49;14.00;99.90
35633;DHT22;21754;48.216;-1.628;2023-02-01T15:03:41;14.00;99.90
35633;DHT22;21754;48.216;-1.628;2023-02-01T15:11:29;14.20;99.90
35633;DHT22;21754;48.216;-1.628;2023-02-01T15:13:55;14.30;99.90
35633;DHT22;21754;48.216;-1.628;2023-02-01T15:16:24;14.30;99.90
35633;DHT22;21754;48.216;-1.628;2023-02-01T15:19:06;14.30;99.90
35633;DHT22;21754;48.216;-1.628;2023-02-01T15:21:46;14.30;99.90
35633;DHT22;21754;48.216;-1.628;2023-02-01T15:24:18;14.30;99.90
35633;DHT22;21754;48.216;-1.628;2023-02-01T15:26:44;14.20;99.90
35633;DHT22;21754;48.216;-1.628;2023-02-01T15:29:13;14.10;99.90
35633;DHT22;21754;48.216;-1.628;2023-02-01T15:31:50;14.20;99.90
35633;DHT22;21754;48.216;-1.628;2023-02-01T15:34:17;14.30;99.90
35633;DHT22;21754;48.216;-1.628;2023-02-01T15:36:44;14.40;99.90
35633;DHT22;21754;48.216;-1.628;2023-02-01T15:39:23;14.40;99.90
35633;DHT22;21754;48.216;-1.628;2023-02-01T15:41:54;14.40;99.90
35633;DHT22;21754;48.216;-1.628;2023-02-01T15:44:39;14.30;99.90
35633;DHT22;21754;48.216;-1.628;2023-02-01T15:49:40;14.30;99.90
35633;DHT22;21754;48.216;-1.628;2023-02-01T15:52:53;14.20;99.90
35633;DHT22;21754;48.216;-1.628;2023-02-01T15:55:26;14.20;99.90
35633;DHT22;21754;48.216;-1.628;2023-02-01T15:57:58;14.10;99.90
35633;DHT22;21754;48.216;-1.628;2023-02-01T16:00:29;14.10;99.90
35633;DHT22;21754;48.216;-1.628;2023-02-01T16:03:00;14.20;99.90
35633;DHT22;21754;48.216;-1.628;2023-02-01T16:05:34;14.20;99.90
35633;DHT22;21754;48.216;-1.628;2023-02-01T16:08:11;14.30;99.90
35633;DHT22;21754;48.216;-1.628;2023-02-01T16:10:40;14.30;99.90
35633;DHT22;21754;48.216;-1.628;2023-02-01T16:13:07;14.30;99.90
35633;DHT22;21754;48.216;-1.628;2023-02-01T16:15:32;14.30;99.90
35633;DHT22;21754;48.216;-1.628;2023-02-01T16:17:58;14.10;99.90
35633;DHT22;21754;48.216;-1.628;2023-02-01T16:20:24;14.00;99.90
35633;DHT22;21754;48.216;-1.628;2023-02-01T16:22:49;13.90;99.90
35633;DHT22;21754;48.216;-1.628;2023-02-01T16:25:15;13.90;99.90
35633;DHT22;21754;48.216;-1.628;2023-02-01T16:27:41;14.00;99.90
35633;DHT22;21754;48.216;-1.628;2023-02-01T16:30:07;14.00;99.90
35633;DHT22;21754;48.216;-1.628;2023-02-01T16:32:35;14.10;99.90
35633;DHT22;21754;48.216;-1.628;2023-02-01T16:35:18;14.20;99.90
35633;DHT22;21754;48.216;-1.628;2023-02-01T16:37:46;14.20;99.90
35633;DHT22;21754;48.216;-1.628;2023-02-01T16:40:14;14.10;99.90
35633;DHT22;21754;48.216;-1.628;2023-02-01T16:42:39;14.20;99.90
35633;DHT22;21754;48.216;-1.628;2023-02-01T16:45:06;14.00;99.90
35633;DHT22;21754;48.216;-1.628;2023-02-01T16:47:32;13.80;99.90
35633;DHT22;21754;48.216;-1.628;2023-02-01T16:49:59;13.50;99.90
35633;DHT22;21754;48.216;-1.628;2023-02-01T16:52:26;13.50;99.90
35633;DHT22;21754;48.216;-1.628;2023-02-01T16:54:51;13.20;99.90
35633;DHT22;21754;48.216;-1.628;2023-02-01T16:57:19;13.20;99.90
35633;DHT22;21754;48.216;-1.628;2023-02-01T16:59:48;13.30;99.90
35633;DHT22;21754;48.216;-1.628;2023-02-01T17:02:16;13.40;99.90
35633;DHT22;21754;48.216;-1.628;2023-02-01T17:04:42;13.40;99.90
35633;DHT22;21754;48.216;-1.628;2023-02-01T17:07:15;13.60;99.90
35633;DHT22;21754;48.216;-1.628;2023-02-01T17:09:42;13.70;99.90
35633;DHT22;21754;48.216;-1.628;2023-02-01T17:14:46;13.80;99.90
35633;DHT22;21754;48.216;-1.628;2023-02-01T17:17:12;13.70;99.90
35633;DHT22;21754;48.216;-1.628;2023-02-01T17:19:38;13.60;99.90
35633;DHT22;21754;48.216;-1.628;2023-02-01T17:22:04;13.60;99.90
35633;DHT22;21754;48.216;-1.628;2023-02-01T17:24:31;13.50;99.90
35633;DHT22;21754;48.216;-1.628;2023-02-01T17:26:57;13.50;99.90
35633;DHT22;21754;48.216;-1.628;2023-02-01T17:29:24;13.60;99.90
35633;DHT22;21754;48.216;-1.628;2023-02-01T17:31:52;13.50;99.90
35633;DHT22;21754;48.216;-1.628;2023-02-01T17:34:19;13.40;99.90
35633;DHT22;21754;48.216;-1.628;2023-02-01T17:36:46;13.40;99.90
35633;DHT22;21754;48.216;-1.628;2023-02-01T17:39:13;13.30;99.90
35633;DHT22;21754;48.216;-1.628;2023-02-01T17:42:00;13.40;99.90
35633;DHT22;21754;48.216;-1.628;2023-02-01T17:44:26;13.40;99.90
35633;DHT22;21754;48.216;-1.628;2023-02-01T17:46:52;13.40;99.90
35633;DHT22;21754;48.216;-1.628;2023-02-01T17:49:17;13.30;99.90
35633;DHT22;21754;48.216;-1.628;2023-02-01T17:51:43;13.20;99.90
35633;DHT22;21754;48.216;-1.628;2023-02-01T17:54:16;13.10;99.90
35633;DHT22;21754;48.216;-1.628;2023-02-01T17:56:44;13.30;99.90
35633;DHT22;21754;48.216;-1.628;2023-02-01T17:59:13;13.30;99.90
35633;DHT22;21754;48.216;-1.628;2023-02-01T18:01:40;13.40;99.90
35633;DHT22;21754;48.216;-1.628;2023-02-01T18:04:10;13.40;99.90
35633;DHT22;21754;48.216;-1.628;2023-02-01T18:06:36;13.40;99.90
35633;DHT22;21754;48.216;-1.628;2023-02-01T18:09:02;13.40;99.90
35633;DHT22;21754;48.216;-1.628;2023-02-01T18:11:27;13.50;99.90
35633;DHT22;21754;48.216;-1.628;2023-02-01T18:13:57;13.50;99.90
35633;DHT22;21754;48.216;-1.628;2023-02-01T18:16:24;13.60;99.90
35633;DHT22;21754;48.216;-1.628;2023-02-01T18:18:51;13.60;99.90
35633;DHT22;21754;48.216;-1.628;2023-02-01T18:21:18;13.50;99.90
35633;DHT22;21754;48.216;-1.628;2023-02-01T18:23:44;13.50;99.90
35633;DHT22;21754;48.216;-1.628;2023-02-01T18:26:15;13.60;99.90
35633;DHT22;21754;48.216;-1.628;2023-02-01T18:28:41;13.60;99.90
35633;DHT22;21754;48.216;-1.628;2023-02-01T18:31:31;13.50;99.90
35633;DHT22;21754;48.216;-1.628;2023-02-01T18:33:58;13.50;99.90
35633;DHT22;21754;48.216;-1.628;2023-02-01T18:36:25;13.60;99.90
35633;DHT22;21754;48.216;-1.628;2023-02-01T18:38:51;13.60;99.90
35633;DHT22;21754;48.216;-1.628;2023-02-01T18:41:19;13.60;99.90
35633;DHT22;21754;48.216;-1.628;2023-02-01T18:43:46;13.50;99.90
35633;DHT22;21754;48.216;-1.628;2023-02-01T18:46:12;13.50;99.90
35633;DHT22;21754;48.216;-1.628;2023-02-01T18:48:40;13.50;99.90
35633;DHT22;21754;48.216;-1.628;2023-02-01T18:51:09;13.60;99.90
35633;DHT22;21754;48.216;-1.628;2023-02-01T18:53:35;13.50;99.90
35633;DHT22;21754;48.216;-1.628;2023-02-01T18:56:01;13.60;99.90
35633;DHT22;21754;48.216;-1.628;2023-02-01T18:58:27;13.60;99.90
35633;DHT22;21754;48.216;-1.628;2023-02-01T19:00:54;13.60;99.90
35633;DHT22;21754;48.216;-1.628;2023-02-01T19:03:21;13.60;99.90
35633;DHT22;21754;48.216;-1.628;2023-02-01T19:05:53;13.50;99.90
35633;DHT22;21754;48.216;-1.628;2023-02-01T19:08:18;13.50;99.90
35633;DHT22;21754;48.216;-1.628;2023-02-01T19:10:44;13.50;99.90
35633;DHT22;21754;48.216;-1.628;2023-02-01T19:13:10;13.40;99.90
35633;DHT22;21754;48.216;-1.628;2023-02-01T19:15:40;13.30;99.90
35633;DHT22;21754;48.216;-1.628;2023-02-01T19:18:07;13.40;99.90
35633;DHT22;21754;48.216;-1.628;2023-02-01T19:20:35;13.40;99.90
35633;DHT22;21754;48.216;-1.628;2023-02-01T19:23:01;13.30;99.90
35633;DHT22;21754;48.216;-1.628;2023-02-01T19:25:26;13.30;99.90
35633;DHT22;21754;48.216;-1.628;2023-02-01T19:27:54;13.30;99.90
35633;DHT22;21754;48.216;-1.628;2023-02-01T19:30:21;13.30;99.90
35633;DHT22;21754;48.216;-1.628;2023-02-01T19:32:47;13.30;99.90
35633;DHT22;21754;48.216;-1.628;2023-02-01T19:35:17;13.20;99.90
35633;DHT22;21754;48.216;-1.628;2023-02-01T19:37:47;13.20;99.90
35633;DHT22;21754;48.216;-1.628;2023-02-01T19:40:15;13.20;99.90
35633;DHT22;21754;48.216;-1.628;2023-02-01T19:42:41;13.20;99.90
35633;DHT22;21754;48.216;-1.628;2023-02-01T19:45:07;13.20;99.90
35633;DHT22;21754;48.216;-1.628;2023-02-01T19:47:34;13.20;99.90
35633;DHT22;21754;48.216;-1.628;2023-02-01T19:50:00;13.20;99.90
35633;DHT22;21754;48.216;-1.628;2023-02-01T19:52:25;13.20;99.90
35633;DHT22;21754;48.216;-1.628;2023-02-01T19:54:51;13.10;99.90
35633;DHT22;21754;48.216;-1.628;2023-02-01T19:57:17;13.00;99.90
35633;DHT22;21754;48.216;-1.628;2023-02-01T19:59:42;13.00;99.90
35633;DHT22;21754;48.216;-1.628;2023-02-01T20:02:15;13.00;99.90
35633;DHT22;21754;48.216;-1.628;2023-02-01T20:04:41;13.10;99.90
35633;DHT22;21754;48.216;-1.628;2023-02-01T20:07:07;13.00;99.90
35633;DHT22;21754;48.216;-1.628;2023-02-01T20:09:36;13.00;99.90
35633;DHT22;21754;48.216;-1.628;2023-02-01T20:12:03;13.10;99.90
35633;DHT22;21754;48.216;-1.628;2023-02-01T20:14:29;13.00;99.90
35633;DHT22;21754;48.216;-1.628;2023-02-01T20:16:55;13.00;99.90
